Time;durP1;ratioP1;P1;durP2;ratioP2;P2;SDS_P1;SDS_P2;PMS_P1;PMS_P2;Temp;Humidity;BMP_temperature;BMP_pressure;BME280_temperature;BME280_humidity;BME280_pressure;Samples;Min_cycle;Max_cycle;Signal;HPM_P1;HPM_P2
2021/01/25 00:01:30;;;;;;;3.60;3.20;;;;;;;;;;5028993;28;20424;-57
2021/01/25 00:03:56;;;;;;;3.07;2.77;;;;;;;;;;5027698;28;20453;-57
2021/01/25 00:06:23;;;;;;;6.63;3.67;;;;;;;;;;5029019;28;20486;-57
2021/01/25 00:08:49;;;;;;;3.53;3.20;;;;;;;;;;5029106;28;20452;-57
2021/01/25 00:11:15;;;;;;;5.23;3.13;;;;;;;;;;5028711;28;20471;-58
2021/01/25 00:13:41;;;;;;;3.90;3.43;;;;;;;;;;5027195;28;20484;-57
2021/01/25 00:16:08;;;;;;;4.07;3.03;;;;;;;;;;5023346;28;20460;-57
2021/01/25 00:18:34;;;;;;;3.33;3.03;;;;;;;;;;5010032;28;20424;-57
2021/01/25 00:21:00;;;;;;;4.20;3.37;;;;;;;;;;5028113;28;20574;-57
2021/01/25 00:23:26;;;;;;;4.97;3.17;;;;;;;;;;5028848;28;20428;-58
2021/01/25 00:25:53;;;;;;;4.00;3.10;;;;;;;;;;5027096;28;20427;-57
2021/01/25 00:28:19;;;;;;;4.43;3.63;;;;;;;;;;5021973;28;20475;-57
2021/01/25 00:30:45;;;;;;;3.77;3.13;;;;;;;;;;5027311;28;20432;-59
2021/01/25 00:33:11;;;;;;;5.27;2.80;;;;;;;;;;5028469;28;20794;-57
2021/01/25 00:35:37;;;;;;;7.00;3.50;;;;;;;;;;5028320;28;20479;-59
2021/01/25 00:38:04;;;;;;;4.23;3.17;;;;;;;;;;5025834;28;20468;-58
2021/01/25 00:40:30;;;;;;;5.67;3.53;;;;;;;;;;5024161;28;20425;-57
2021/01/25 00:42:56;;;;;;;3.93;2.90;;;;;;;;;;5026171;28;20420;-57
2021/01/25 00:45:22;;;;;;;3.97;3.03;;;;;;;;;;5028609;28;20538;-57
2021/01/25 00:47:48;;;;;;;3.83;2.90;;;;;;;;;;5028355;28;20456;-57
2021/01/25 00:50:15;;;;;;;6.37;3.00;;;;;;;;;;5021716;28;20432;-57
2021/01/25 00:52:41;;;;;;;5.57;3.03;;;;;;;;;;5028543;28;20452;-57
2021/01/25 00:55:07;;;;;;;4.40;2.93;;;;;;;;;;5026128;28;20751;-57
2021/01/25 00:57:33;;;;;;;3.33;2.93;;;;;;;;;;5009243;28;20817;-57
2021/01/25 00:59:59;;;;;;;3.67;2.93;;;;;;;;;;5026976;28;20511;-57
2021/01/25 01:02:26;;;;;;;3.53;2.80;;;;;;;;;;5027452;28;20186;-56
2021/01/25 01:04:58;;;;;;;3.37;2.90;;;;;;;;;;5108398;27;20490;-57
2021/01/25 01:07:24;;;;;;;5.70;4.17;;;;;;;;;;5105093;28;21014;-56
2021/01/25 01:09:50;;;;;;;3.80;2.77;;;;;;;;;;5089501;28;20196;-57
2021/01/25 01:12:16;;;;;;;4.23;3.30;;;;;;;;;;5075488;28;20184;-57
2021/01/25 01:14:42;;;;;;;4.00;3.47;;;;;;;;;;5094689;28;20743;-56
2021/01/25 01:17:08;;;;;;;3.83;3.20;;;;;;;;;;5088621;28;20266;-56
2021/01/25 01:19:34;;;;;;;3.30;3.00;;;;;;;;;;5068409;28;20437;-56
2021/01/25 01:22:00;;;;;;;3.43;2.60;;;;;;;;;;5095697;28;20420;-57
2021/01/25 01:24:26;;;;;;;3.10;2.70;;;;;;;;;;5088871;28;21116;-56
2021/01/25 01:26:52;;;;;;;4.37;2.83;;;;;;;;;;5092719;28;20425;-57
2021/01/25 01:29:18;;;;;;;4.57;2.90;;;;;;;;;;5095898;28;20207;-56
2021/01/25 01:31:45;;;;;;;3.97;2.90;;;;;;;;;;5090496;28;20179;-56
2021/01/25 01:34:11;;;;;;;5.07;3.33;;;;;;;;;;5088259;28;20275;-56
2021/01/25 01:36:37;;;;;;;2.70;2.50;;;;;;;;;;5087547;28;20811;-57
2021/01/25 01:39:03;;;;;;;4.20;3.40;;;;;;;;;;5089533;28;20426;-58
2021/01/25 01:41:34;;;;;;;3.50;2.87;;;;;;;;;;5091247;28;20229;-56
2021/01/25 01:44:00;;;;;;;4.13;3.53;;;;;;;;;;5071232;28;20464;-57
2021/01/25 01:46:26;;;;;;;3.77;3.00;;;;;;;;;;5090808;28;20458;-56
2021/01/25 01:48:52;;;;;;;4.53;3.00;;;;;;;;;;5072479;28;20775;-56
2021/01/25 01:51:18;;;;;;;5.43;3.33;;;;;;;;;;5089752;28;20428;-56
2021/01/25 01:53:44;;;;;;;4.73;3.53;;;;;;;;;;5089362;28;20552;-57
2021/01/25 01:56:10;;;;;;;5.17;3.23;;;;;;;;;;5088634;28;20516;-56
2021/01/25 01:58:36;;;;;;;3.73;3.33;;;;;;;;;;5075145;28;20183;-57
2021/01/25 02:01:02;;;;;;;4.17;3.00;;;;;;;;;;5074237;28;20473;-57
2021/01/25 02:03:28;;;;;;;4.70;2.80;;;;;;;;;;5081396;28;20534;-57
2021/01/25 02:05:54;;;;;;;4.20;3.10;;;;;;;;;;5065528;28;20427;-57
2021/01/25 02:08:21;;;;;;;3.53;3.00;;;;;;;;;;5066384;28;20825;-56
2021/01/25 02:10:48;;;;;;;3.73;3.33;;;;;;;;;;5067140;28;20426;-56
2021/01/25 02:13:14;;;;;;;3.20;2.90;;;;;;;;;;5046210;28;20465;-57
2021/01/25 02:15:40;;;;;;;4.70;2.80;;;;;;;;;;5054980;28;20428;-57
2021/01/25 02:18:06;;;;;;;3.10;2.60;;;;;;;;;;5057032;28;20427;-56
2021/01/25 02:20:37;;;;;;;3.53;3.13;;;;;;;;;;5051510;28;20427;-56
2021/01/25 02:23:22;;;;;;;3.87;3.03;;;;;;;;;;5055857;28;20810;-59
2021/01/25 02:26:04;;;;;;;3.63;2.90;;;;;;;;;;5055408;28;20437;-59
2021/01/25 02:28:31;;;;;;;3.10;2.80;;;;;;;;;;5060556;28;20418;-57
2021/01/25 02:30:59;;;;;;;4.83;2.70;;;;;;;;;;5062517;28;20446;-57
2021/01/25 02:33:26;;;;;;;3.73;3.17;;;;;;;;;;5057207;28;20572;-57
2021/01/25 02:35:53;;;;;;;3.07;2.77;;;;;;;;;;5057595;28;20424;-56
2021/01/25 02:38:20;;;;;;;5.03;2.83;;;;;;;;;;5054432;28;20439;-57
2021/01/25 02:40:47;;;;;;;5.13;3.20;;;;;;;;;;5060521;28;20427;-58
2021/01/25 02:43:14;;;;;;;3.10;2.80;;;;;;;;;;5056352;28;20472;-56
2021/01/25 02:45:41;;;;;;;4.17;3.00;;;;;;;;;;5056464;28;20428;-56
2021/01/25 02:48:08;;;;;;;3.07;2.70;;;;;;;;;;5051606;28;20431;-56
2021/01/25 02:50:34;;;;;;;4.33;2.97;;;;;;;;;;5052530;28;20435;-56
2021/01/25 02:53:00;;;;;;;4.90;2.80;;;;;;;;;;5053002;28;20480;-56
2021/01/25 02:55:26;;;;;;;2.83;2.40;;;;;;;;;;5050734;28;20435;-57
2021/01/25 02:57:54;;;;;;;3.77;2.97;;;;;;;;;;5032182;28;20439;-56
2021/01/25 03:00:20;;;;;;;3.03;2.53;;;;;;;;;;5057224;28;20529;-57
2021/01/25 03:02:46;;;;;;;3.53;3.20;;;;;;;;;;5050976;28;20780;-56
2021/01/25 03:05:12;;;;;;;3.13;2.83;;;;;;;;;;5052621;28;20883;-56
2021/01/25 03:07:39;;;;;;;3.90;2.50;;;;;;;;;;5055583;28;20501;-56
2021/01/25 03:10:06;;;;;;;3.13;2.83;;;;;;;;;;5036870;28;20469;-56
2021/01/25 03:12:32;;;;;;;3.37;2.23;;;;;;;;;;5052063;28;20427;-56
2021/01/25 03:14:58;;;;;;;4.07;2.53;;;;;;;;;;5050294;28;20445;-56
2021/01/25 03:17:24;;;;;;;3.03;2.50;;;;;;;;;;5059305;28;20778;-58
2021/01/25 03:19:50;;;;;;;2.50;2.27;;;;;;;;;;5053245;28;20480;-57
2021/01/25 03:22:16;;;;;;;3.37;2.87;;;;;;;;;;5049848;28;20428;-56
2021/01/25 03:24:42;;;;;;;3.90;3.07;;;;;;;;;;5060429;28;20450;-59
2021/01/25 03:27:08;;;;;;;3.30;2.90;;;;;;;;;;5052449;28;20435;-56
2021/01/25 03:29:35;;;;;;;2.77;2.50;;;;;;;;;;5059162;28;20192;-57
2021/01/25 03:32:01;;;;;;;3.10;2.73;;;;;;;;;;5041600;28;20455;-57
2021/01/25 03:34:27;;;;;;;3.10;2.80;;;;;;;;;;5050321;28;20428;-57
2021/01/25 03:36:53;;;;;;;3.47;2.50;;;;;;;;;;5059825;28;20529;-57
2021/01/25 03:39:19;;;;;;;2.87;2.60;;;;;;;;;;5046980;28;20457;-58
2021/01/25 03:41:47;;;;;;;3.20;2.50;;;;;;;;;;5056432;28;20436;-57
2021/01/25 03:44:13;;;;;;;3.77;3.37;;;;;;;;;;5057124;28;20949;-57
2021/01/25 03:46:40;;;;;;;3.20;2.87;;;;;;;;;;5052362;28;20858;-59
2021/01/25 03:49:06;;;;;;;3.53;2.70;;;;;;;;;;5050470;28;20431;-56
2021/01/25 03:51:32;;;;;;;2.87;2.37;;;;;;;;;;5051940;28;20439;-57
2021/01/25 03:53:58;;;;;;;2.87;2.57;;;;;;;;;;5052622;28;20424;-56
2021/01/25 03:56:24;;;;;;;4.10;2.63;;;;;;;;;;5051882;28;20431;-56
2021/01/25 03:58:50;;;;;;;2.47;2.17;;;;;;;;;;5051911;28;20623;-57
2021/01/25 04:01:16;;;;;;;3.37;2.80;;;;;;;;;;5052365;28;20559;-56
2021/01/25 04:03:42;;;;;;;3.20;2.53;;;;;;;;;;5056113;28;20229;-56
2021/01/25 04:06:08;;;;;;;4.10;2.80;;;;;;;;;;5051431;28;20415;-58
2021/01/25 04:08:34;;;;;;;3.03;2.73;;;;;;;;;;5053534;28;20991;-57
2021/01/25 04:11:00;;;;;;;2.63;2.27;;;;;;;;;;5053762;28;20953;-57
2021/01/25 04:13:26;;;;;;;3.70;2.57;;;;;;;;;;5042258;28;20765;-57
2021/01/25 04:15:52;;;;;;;3.10;2.37;;;;;;;;;;5056353;28;20430;-57
2021/01/25 04:18:18;;;;;;;2.77;2.57;;;;;;;;;;5057031;28;20176;-57
2021/01/25 04:20:44;;;;;;;2.37;2.07;;;;;;;;;;5054967;28;20554;-57
2021/01/25 04:23:10;;;;;;;4.37;2.33;;;;;;;;;;5058178;28;20813;-58
2021/01/25 04:25:36;;;;;;;3.47;2.37;;;;;;;;;;5056392;28;20850;-57
2021/01/25 04:28:03;;;;;;;2.73;2.37;;;;;;;;;;5058530;28;20427;-57
2021/01/25 04:30:29;;;;;;;2.33;2.13;;;;;;;;;;5054087;28;20436;-57
2021/01/25 04:32:55;;;;;;;4.20;2.47;;;;;;;;;;5060124;28;20539;-57
2021/01/25 04:35:21;;;;;;;3.07;2.47;;;;;;;;;;5058615;28;20451;-57
2021/01/25 04:37:47;;;;;;;2.37;2.17;;;;;;;;;;5038101;28;20487;-57
2021/01/25 04:40:13;;;;;;;2.87;2.50;;;;;;;;;;5058715;28;20451;-57
2021/01/25 04:42:40;;;;;;;2.95;2.45;;;;;;;;;;5056361;28;20431;-57
2021/01/25 04:45:07;;;;;;;2.57;2.33;;;;;;;;;;5048342;28;20478;-57
2021/01/25 04:47:33;;;;;;;3.43;2.90;;;;;;;;;;5036744;28;20439;-56
2021/01/25 04:49:59;;;;;;;2.20;2.00;;;;;;;;;;5053026;28;20789;-56
2021/01/25 04:52:26;;;;;;;3.13;2.33;;;;;;;;;;5061827;28;20584;-57
2021/01/25 04:54:52;;;;;;;2.67;2.33;;;;;;;;;;5051659;28;20738;-57
2021/01/25 04:57:19;;;;;;;3.00;2.60;;;;;;;;;;5056279;28;20444;-57
2021/01/25 04:59:45;;;;;;;2.40;2.20;;;;;;;;;;5054413;28;20431;-57
2021/01/25 05:02:12;;;;;;;3.10;2.57;;;;;;;;;;5049241;28;20427;-56
2021/01/25 05:04:38;;;;;;;2.60;2.20;;;;;;;;;;5049202;28;20486;-57
2021/01/25 05:07:04;;;;;;;2.80;2.50;;;;;;;;;;5050834;28;20431;-56
2021/01/25 05:09:31;;;;;;;4.30;2.33;;;;;;;;;;5049773;28;20446;-59
2021/01/25 05:12:01;;;;;;;2.40;2.20;;;;;;;;;;5049318;28;20419;-56
2021/01/25 05:14:40;;;;;;;2.80;2.17;;;;;;;;;;5054643;28;20415;-58
2021/01/25 05:17:16;;;;;;;2.80;2.10;;;;;;;;;;5056373;28;20940;-58
2021/01/25 05:19:45;;;;;;;2.77;1.83;;;;;;;;;;5056555;28;20500;-57
2021/01/25 05:22:21;;;;;;;3.83;2.10;;;;;;;;;;5058709;28;20427;-57
2021/01/25 05:24:48;;;;;;;2.50;2.30;;;;;;;;;;5062071;28;20466;-57
2021/01/25 05:27:28;;;;;;;3.23;2.07;;;;;;;;;;5049826;28;20433;-56
2021/01/25 05:29:54;;;;;;;2.50;2.00;;;;;;;;;;5054557;28;20455;-56
2021/01/25 05:32:20;;;;;;;2.50;2.30;;;;;;;;;;5031795;28;20903;-56
2021/01/25 05:34:47;;;;;;;2.80;2.00;;;;;;;;;;5062584;28;20970;-58
2021/01/25 05:37:13;;;;;;;2.77;2.47;;;;;;;;;;5053112;28;20442;-57
2021/01/25 05:39:43;;;;;;;2.53;2.33;;;;;;;;;;5047790;28;20932;-57
2021/01/25 05:42:09;;;;;;;2.27;1.93;;;;;;;;;;5029658;28;20431;-57
2021/01/25 05:44:36;;;;;;;2.30;2.10;;;;;;;;;;5031094;28;20933;-56
2021/01/25 05:47:03;;;;;;;4.00;2.10;;;;;;;;;;5031422;28;20883;-57
2021/01/25 05:49:29;;;;;;;2.73;2.20;;;;;;;;;;5033241;28;20948;-57
2021/01/25 05:51:55;;;;;;;2.53;2.20;;;;;;;;;;5057232;28;20847;-57
2021/01/25 05:54:23;;;;;;;2.47;2.13;;;;;;;;;;5057108;28;20894;-57
2021/01/25 05:56:49;;;;;;;4.23;2.47;;;;;;;;;;5055970;28;20481;-56
2021/01/25 05:59:15;;;;;;;3.43;2.23;;;;;;;;;;5054941;28;20435;-56
2021/01/25 06:01:42;;;;;;;2.97;2.30;;;;;;;;;;5054344;28;20739;-59
2021/01/25 06:04:10;;;;;;;2.77;2.40;;;;;;;;;;5059488;28;20488;-57
2021/01/25 06:06:37;;;;;;;2.67;2.40;;;;;;;;;;5052145;28;20572;-57
2021/01/25 06:09:03;;;;;;;2.40;2.20;;;;;;;;;;5053142;28;20529;-57
2021/01/25 06:11:33;;;;;;;3.80;2.40;;;;;;;;;;5054753;28;20423;-56
2021/01/25 06:14:19;;;;;;;3.17;2.20;;;;;;;;;;5051191;28;20412;-57
2021/01/25 06:16:49;;;;;;;5.97;3.00;;;;;;;;;;5051002;28;21342;-56
2021/01/25 06:19:16;;;;;;;3.43;2.20;;;;;;;;;;5054446;28;20427;-57
2021/01/25 06:21:42;;;;;;;3.17;2.60;;;;;;;;;;5054324;28;20436;-57
2021/01/25 06:24:09;;;;;;;2.47;2.27;;;;;;;;;;5036643;28;20688;-56
2021/01/25 06:26:36;;;;;;;2.90;2.10;;;;;;;;;;5062654;28;20428;-56
2021/01/25 06:29:07;;;;;;;2.53;2.23;;;;;;;;;;5048119;28;20523;-57
2021/01/25 06:31:34;;;;;;;2.50;2.30;;;;;;;;;;5058186;28;20593;-56
2021/01/25 06:34:02;;;;;;;2.60;2.10;;;;;;;;;;5058420;28;20434;-56
2021/01/25 06:36:28;;;;;;;3.87;3.13;;;;;;;;;;5059853;28;20418;-57
2021/01/25 06:38:55;;;;;;;2.77;2.40;;;;;;;;;;5055822;28;20976;-56
2021/01/25 06:41:21;;;;;;;3.10;2.20;;;;;;;;;;5051947;28;20609;-57
2021/01/25 06:43:49;;;;;;;2.93;2.63;;;;;;;;;;5055152;28;20553;-56
2021/01/25 06:46:18;;;;;;;2.73;2.30;;;;;;;;;;5033911;28;20428;-56
2021/01/25 06:48:47;;;;;;;3.00;2.27;;;;;;;;;;5042001;28;20431;-56
2021/01/25 06:51:14;;;;;;;3.40;2.03;;;;;;;;;;5052386;28;20431;-56
2021/01/25 06:53:41;;;;;;;2.50;2.20;;;;;;;;;;5041576;28;20561;-56
2021/01/25 06:56:07;;;;;;;2.97;2.53;;;;;;;;;;5060476;28;20423;-57
2021/01/25 06:58:36;;;;;;;2.33;2.13;;;;;;;;;;5051914;28;20435;-56
2021/01/25 07:01:08;;;;;;;3.33;2.50;;;;;;;;;;5031322;28;20447;-57
2021/01/25 07:03:51;;;;;;;2.67;2.40;;;;;;;;;;5052959;28;20837;-56
2021/01/25 07:06:18;;;;;;;2.87;2.27;;;;;;;;;;5054756;28;21009;-57
2021/01/25 07:08:56;;;;;;;3.73;2.10;;;;;;;;;;5056482;28;20454;-56
2021/01/25 07:11:23;;;;;;;2.57;2.03;;;;;;;;;;5050321;28;21293;-57
2021/01/25 07:13:50;;;;;;;2.60;2.17;;;;;;;;;;5050034;28;20501;-56
2021/01/25 07:16:17;;;;;;;3.23;2.03;;;;;;;;;;5058855;28;20438;-57
2021/01/25 07:18:43;;;;;;;3.47;2.30;;;;;;;;;;5055408;28;21125;-56
2021/01/25 07:21:13;;;;;;;2.30;2.10;;;;;;;;;;5057448;28;20925;-57
2021/01/25 07:23:42;;;;;;;2.17;1.97;;;;;;;;;;5052449;28;20591;-58
2021/01/25 07:26:10;;;;;;;2.13;1.93;;;;;;;;;;5051516;28;20831;-57
2021/01/25 07:28:36;;;;;;;2.87;2.43;;;;;;;;;;5053843;28;20430;-57
2021/01/25 07:31:02;;;;;;;2.90;2.13;;;;;;;;;;5050465;28;20467;-57
2021/01/25 07:33:28;;;;;;;3.03;2.60;;;;;;;;;;5052994;28;20439;-59
2021/01/25 07:35:55;;;;;;;3.23;2.30;;;;;;;;;;5061043;28;20422;-56
2021/01/25 07:38:22;;;;;;;2.37;2.13;;;;;;;;;;5057536;28;20858;-56
2021/01/25 07:40:49;;;;;;;3.57;2.60;;;;;;;;;;5052641;28;20435;-56
2021/01/25 07:43:19;;;;;;;2.53;2.20;;;;;;;;;;5049264;28;20458;-57
2021/01/25 07:45:51;;;;;;;3.13;2.77;;;;;;;;;;5035764;28;20439;-57
2021/01/25 07:48:17;;;;;;;3.13;2.77;;;;;;;;;;5056382;28;20452;-58
2021/01/25 07:50:52;;;;;;;3.53;3.00;;;;;;;;;;5054206;28;20423;-57
2021/01/25 07:53:18;;;;;;;2.63;2.40;;;;;;;;;;5051356;28;20204;-57
2021/01/25 07:55:44;;;;;;;3.07;2.50;;;;;;;;;;5061464;28;20921;-57
2021/01/25 07:58:11;;;;;;;3.37;2.63;;;;;;;;;;5058878;28;20458;-57
2021/01/25 08:00:40;;;;;;;3.67;2.40;;;;;;;;;;5059908;28;20435;-58
2021/01/25 08:03:12;;;;;;;3.87;2.70;;;;;;;;;;5048975;28;20459;-56
2021/01/25 08:05:38;;;;;;;3.00;2.70;;;;;;;;;;5059235;28;20433;-57
2021/01/25 08:08:10;;;;;;;3.17;2.87;;;;;;;;;;5055952;28;20447;-57
2021/01/25 08:10:36;;;;;;;2.80;2.50;;;;;;;;;;5033218;28;20427;-56
2021/01/25 08:13:17;;;;;;;3.20;2.67;;;;;;;;;;5033920;28;20423;-56
2021/01/25 08:15:56;;;;;;;3.17;2.77;;;;;;;;;;5040012;28;20416;-57
2021/01/25 08:18:24;;;;;;;4.00;3.07;;;;;;;;;;5050284;28;20411;-58
2021/01/25 08:20:53;;;;;;;3.87;2.80;;;;;;;;;;5059036;28;20930;-57
2021/01/25 08:23:22;;;;;;;3.67;2.90;;;;;;;;;;5055816;28;20956;-56
2021/01/25 08:26:01;;;;;;;3.27;2.73;;;;;;;;;;5057234;28;20937;-59
2021/01/25 08:28:29;;;;;;;3.90;3.07;;;;;;;;;;5055705;28;20415;-58
2021/01/25 08:31:06;;;;;;;2.40;2.20;;;;;;;;;;5054215;28;20420;-57
2021/01/25 08:33:33;;;;;;;4.60;3.33;;;;;;;;;;5050348;28;20743;-57
2021/01/25 08:36:00;;;;;;;3.37;3.07;;;;;;;;;;5055928;28;20431;-57
2021/01/25 08:38:28;;;;;;;3.80;3.03;;;;;;;;;;5052160;28;20542;-58
2021/01/25 08:40:55;;;;;;;4.20;3.10;;;;;;;;;;5058947;28;20433;-57
2021/01/25 08:43:23;;;;;;;3.97;3.03;;;;;;;;;;5057155;28;20454;-57
2021/01/25 08:45:50;;;;;;;5.23;3.30;;;;;;;;;;5062801;28;20763;-57
2021/01/25 08:48:23;;;;;;;3.07;2.77;;;;;;;;;;5049438;28;20416;-57
2021/01/25 08:50:51;;;;;;;4.60;3.47;;;;;;;;;;5048654;28;20427;-57
2021/01/25 08:53:28;;;;;;;3.40;3.10;;;;;;;;;;5054061;28;20526;-57
2021/01/25 08:55:57;;;;;;;4.03;3.57;;;;;;;;;;5051320;28;20502;-57
2021/01/25 08:58:30;;;;;;;6.10;3.30;;;;;;;;;;5051027;28;20428;-57
2021/01/25 09:00:57;;;;;;;3.60;3.13;;;;;;;;;;5058204;28;20446;-58
2021/01/25 09:03:26;;;;;;;4.83;3.87;;;;;;;;;;5054025;28;20483;-57
2021/01/25 09:05:53;;;;;;;4.23;3.60;;;;;;;;;;5049355;28;20432;-57
2021/01/25 09:08:20;;;;;;;3.60;3.10;;;;;;;;;;5036227;28;20473;-57
2021/01/25 09:10:46;;;;;;;7.10;4.00;;;;;;;;;;5030896;28;20527;-57
2021/01/25 09:13:12;;;;;;;3.87;3.47;;;;;;;;;;5055628;28;20442;-57
2021/01/25 09:15:38;;;;;;;4.57;3.80;;;;;;;;;;5054038;28;20438;-60
2021/01/25 09:18:07;;;;;;;4.37;3.70;;;;;;;;;;5055804;28;20427;-58
2021/01/25 09:20:33;;;;;;;5.90;4.03;;;;;;;;;;5053340;28;20435;-57
2021/01/25 09:22:59;;;;;;;5.60;3.93;;;;;;;;;;5036346;28;20438;-57
2021/01/25 09:25:25;;;;;;;5.20;4.20;;;;;;;;;;5056792;28;20413;-57
2021/01/25 09:27:51;;;;;;;7.00;4.60;;;;;;;;;;5061046;28;20668;-58
2021/01/25 09:30:18;;;;;;;5.63;4.43;;;;;;;;;;5056231;28;20752;-57
2021/01/25 09:32:45;;;;;;;5.17;4.60;;;;;;;;;;5056706;28;20427;-58
2021/01/25 09:35:13;;;;;;;6.73;5.03;;;;;;;;;;5052855;28;20423;-57
2021/01/25 09:37:39;;;;;;;5.20;4.70;;;;;;;;;;5055187;28;20423;-58
2021/01/25 09:40:06;;;;;;;6.20;5.30;;;;;;;;;;5061873;28;20954;-57
2021/01/25 09:42:32;;;;;;;6.80;5.07;;;;;;;;;;5052947;28;20898;-57
2021/01/25 09:44:58;;;;;;;6.57;5.00;;;;;;;;;;5061291;28;20955;-57
2021/01/25 09:47:24;;;;;;;6.53;5.03;;;;;;;;;;5052011;28;20967;-57
2021/01/25 09:49:51;;;;;;;6.17;5.23;;;;;;;;;;5054795;28;20451;-57
2021/01/25 09:52:17;;;;;;;6.17;5.10;;;;;;;;;;5057789;28;20462;-57
2021/01/25 09:54:43;;;;;;;7.50;5.57;;;;;;;;;;5059127;28;20427;-57
2021/01/25 09:57:10;;;;;;;6.53;5.80;;;;;;;;;;5055041;28;20462;-58
2021/01/25 09:59:36;;;;;;;7.33;5.40;;;;;;;;;;5056975;28;20452;-57
2021/01/25 10:02:02;;;;;;;8.23;5.83;;;;;;;;;;5055481;28;20909;-57
2021/01/25 10:04:28;;;;;;;6.77;5.47;;;;;;;;;;5069082;28;20465;-57
2021/01/25 10:06:55;;;;;;;6.87;5.83;;;;;;;;;;5079507;28;20437;-58
2021/01/25 10:09:21;;;;;;;7.07;5.87;;;;;;;;;;5075744;28;20449;-58
2021/01/25 10:11:47;;;;;;;12.03;6.17;;;;;;;;;;5074022;28;20418;-58
2021/01/25 10:14:13;;;;;;;8.10;6.43;;;;;;;;;;5078464;28;20934;-59
2021/01/25 10:16:40;;;;;;;7.87;5.93;;;;;;;;;;5076208;28;20461;-58
2021/01/25 10:19:06;;;;;;;6.80;5.97;;;;;;;;;;5082437;28;20465;-57
2021/01/25 10:21:32;;;;;;;9.37;6.27;;;;;;;;;;5077711;28;20426;-58
2021/01/25 10:23:58;;;;;;;8.97;6.40;;;;;;;;;;5078570;28;20453;-58
2021/01/25 10:26:24;;;;;;;7.17;5.83;;;;;;;;;;5077990;28;20422;-58
2021/01/25 10:28:51;;;;;;;8.37;6.67;;;;;;;;;;5070652;28;20487;-58
2021/01/25 10:31:17;;;;;;;6.97;6.27;;;;;;;;;;5079450;28;20735;-59
2021/01/25 10:33:43;;;;;;;7.17;5.63;;;;;;;;;;5079388;28;20421;-57
2021/01/25 10:36:10;;;;;;;7.17;6.03;;;;;;;;;;5080257;28;20562;-58
2021/01/25 10:38:36;;;;;;;8.87;6.03;;;;;;;;;;5073638;28;20422;-58
2021/01/25 10:41:03;;;;;;;9.53;6.87;;;;;;;;;;5073106;28;20427;-58
2021/01/25 10:43:29;;;;;;;7.77;6.37;;;;;;;;;;5076128;28;21015;-59
2021/01/25 10:45:55;;;;;;;8.23;6.63;;;;;;;;;;5080322;28;20929;-58
2021/01/25 10:48:22;;;;;;;7.03;5.77;;;;;;;;;;5078260;28;20497;-58
2021/01/25 10:50:48;;;;;;;7.70;6.17;;;;;;;;;;5069985;28;20534;-57
2021/01/25 10:53:14;;;;;;;8.43;5.90;;;;;;;;;;5077065;28;20410;-58
2021/01/25 10:55:40;;;;;;;7.53;6.03;;;;;;;;;;5081142;28;20430;-58
2021/01/25 10:58:06;;;;;;;9.17;6.17;;;;;;;;;;5073975;28;20414;-57
2021/01/25 11:00:33;;;;;;;5.83;5.23;;;;;;;;;;5076113;28;22258;-60
2021/01/25 11:02:59;;;;;;;9.23;6.37;;;;;;;;;;5072193;28;20570;-57
2021/01/25 11:05:26;;;;;;;8.50;5.23;;;;;;;;;;5050392;28;20423;-59
2021/01/25 11:07:52;;;;;;;7.47;5.60;;;;;;;;;;5052388;28;21000;-58
2021/01/25 11:10:22;;;;;;;9.83;5.63;;;;;;;;;;5061352;28;20425;-56
2021/01/25 11:12:48;;;;;;;5.90;5.17;;;;;;;;;;5052720;28;20440;-58
2021/01/25 11:15:15;;;;;;;8.57;5.67;;;;;;;;;;5060255;28;20420;-57
2021/01/25 11:17:41;;;;;;;6.90;6.20;;;;;;;;;;5051798;28;20424;-57
2021/01/25 11:20:08;;;;;;;8.10;6.67;;;;;;;;;;5056778;28;20426;-57
2021/01/25 11:22:35;;;;;;;7.53;6.17;;;;;;;;;;5057055;28;20446;-57
2021/01/25 11:25:01;;;;;;;7.80;6.30;;;;;;;;;;5040160;28;20465;-56
2021/01/25 11:27:27;;;;;;;8.33;6.17;;;;;;;;;;5055340;28;20422;-56
2021/01/25 11:29:53;;;;;;;9.63;6.80;;;;;;;;;;5061477;28;20436;-58
2021/01/25 11:32:20;;;;;;;9.47;7.30;;;;;;;;;;5059685;28;20906;-59
2021/01/25 11:34:46;;;;;;;13.13;8.83;;;;;;;;;;5049875;28;20434;-58
2021/01/25 11:37:12;;;;;;;16.00;9.37;;;;;;;;;;5058166;28;20428;-58
2021/01/25 11:39:41;;;;;;;14.23;8.93;;;;;;;;;;5056330;28;20902;-57
2021/01/25 11:42:07;;;;;;;13.30;8.53;;;;;;;;;;5053139;28;20424;-57
2021/01/25 11:44:34;;;;;;;12.40;7.90;;;;;;;;;;5061872;28;20482;-59
2021/01/25 11:47:00;;;;;;;11.93;8.87;;;;;;;;;;5055084;28;20492;-56
2021/01/25 11:49:26;;;;;;;11.73;7.97;;;;;;;;;;5051886;28;20415;-56
2021/01/25 11:51:52;;;;;;;12.70;8.57;;;;;;;;;;5054683;28;20415;-56
2021/01/25 11:54:18;;;;;;;11.07;8.10;;;;;;;;;;5049560;28;20423;-56
2021/01/25 11:56:45;;;;;;;12.73;8.67;;;;;;;;;;5049822;28;20427;-55
2021/01/25 11:59:11;;;;;;;12.83;9.17;;;;;;;;;;5049269;28;20426;-56
2021/01/25 12:01:37;;;;;;;14.67;9.00;;;;;;;;;;5056680;28;20419;-55
2021/01/25 12:04:04;;;;;;;12.83;9.40;;;;;;;;;;5056193;28;20467;-55
2021/01/25 12:06:30;;;;;;;14.50;10.77;;;;;;;;;;5050562;28;20890;-56
2021/01/25 12:08:57;;;;;;;13.63;10.10;;;;;;;;;;5050405;28;20450;-56
2021/01/25 12:11:23;;;;;;;15.90;11.37;;;;;;;;;;5049416;28;20913;-55
2021/01/25 12:13:52;;;;;;;20.57;10.87;;;;;;;;;;5031451;28;20439;-55
2021/01/25 12:16:18;;;;;;;19.17;11.47;;;;;;;;;;5048803;28;20431;-55
2021/01/25 12:18:45;;;;;;;16.60;11.03;;;;;;;;;;5055563;28;21018;-55
2021/01/25 12:21:11;;;;;;;15.30;10.87;;;;;;;;;;5054877;28;20427;-55
2021/01/25 12:23:38;;;;;;;17.37;11.40;;;;;;;;;;5055076;28;20458;-54
2021/01/25 12:26:05;;;;;;;18.87;12.03;;;;;;;;;;5059281;28;20970;-55
2021/01/25 12:28:31;;;;;;;16.97;11.40;;;;;;;;;;5041184;28;20426;-56
2021/01/25 12:30:58;;;;;;;16.50;11.53;;;;;;;;;;5059431;28;20462;-55
2021/01/25 12:33:24;;;;;;;18.57;13.37;;;;;;;;;;5050554;28;20424;-55
2021/01/25 12:35:50;;;;;;;20.80;11.60;;;;;;;;;;5048413;28;20510;-55
2021/01/25 12:38:17;;;;;;;18.20;12.37;;;;;;;;;;5056509;28;20431;-55
2021/01/25 12:40:43;;;;;;;21.13;12.30;;;;;;;;;;5048990;28;20434;-56
2021/01/25 12:43:09;;;;;;;12.13;10.20;;;;;;;;;;5060209;28;20419;-55
2021/01/25 12:45:35;;;;;;;15.23;11.10;;;;;;;;;;5041295;28;21025;-55
2021/01/25 12:48:01;;;;;;;16.53;10.50;;;;;;;;;;5031567;28;20433;-56
2021/01/25 12:50:28;;;;;;;19.20;11.77;;;;;;;;;;5054101;28;20426;-55
2021/01/25 12:52:54;;;;;;;22.57;10.73;;;;;;;;;;5055435;28;20423;-55
2021/01/25 12:55:21;;;;;;;14.97;9.80;;;;;;;;;;5052406;28;20432;-59
2021/01/25 12:57:47;;;;;;;11.73;8.80;;;;;;;;;;5057969;28;20423;-58
2021/01/25 13:00:19;;;;;;;14.43;10.20;;;;;;;;;;5040869;28;20886;-58
2021/01/25 13:02:45;;;;;;;12.67;9.37;;;;;;;;;;5054274;28;20432;-56
2021/01/25 13:05:13;;;;;;;14.40;9.67;;;;;;;;;;5047498;28;20863;-56
2021/01/25 13:07:40;;;;;;;11.83;8.30;;;;;;;;;;5049707;28;20423;-56
2021/01/25 13:10:06;;;;;;;10.23;8.53;;;;;;;;;;5048267;28;20419;-56
2021/01/25 13:12:36;;;;;;;12.13;8.67;;;;;;;;;;5049397;28;20942;-57
2021/01/25 13:15:04;;;;;;;11.80;8.40;;;;;;;;;;5038666;28;20885;-57
2021/01/25 13:17:30;;;;;;;10.53;7.00;;;;;;;;;;5053220;28;20272;-57
2021/01/25 13:19:56;;;;;;;11.23;7.00;;;;;;;;;;5054640;28;20415;-59
2021/01/25 13:22:22;;;;;;;12.83;7.23;;;;;;;;;;5046489;28;20431;-57
2021/01/25 13:24:49;;;;;;;8.50;6.13;;;;;;;;;;5050286;28;20815;-57
2021/01/25 13:27:15;;;;;;;10.40;7.70;;;;;;;;;;5039161;28;20980;-58
2021/01/25 13:29:41;;;;;;;8.80;6.93;;;;;;;;;;5038871;28;20451;-58
2021/01/25 13:32:07;;;;;;;10.27;7.03;;;;;;;;;;5032584;28;20952;-59
2021/01/25 13:34:33;;;;;;;11.83;6.53;;;;;;;;;;5052488;28;20488;-57
2021/01/25 13:37:00;;;;;;;9.90;7.17;;;;;;;;;;5058083;28;20419;-57
2021/01/25 13:39:26;;;;;;;7.77;6.00;;;;;;;;;;5033115;28;20428;-56
2021/01/25 13:41:52;;;;;;;8.73;5.57;;;;;;;;;;5056409;28;20874;-57
2021/01/25 13:44:18;;;;;;;8.47;5.77;;;;;;;;;;5051850;28;20202;-58
2021/01/25 13:46:44;;;;;;;10.53;6.23;;;;;;;;;;5056358;28;20830;-56
2021/01/25 13:49:11;;;;;;;9.13;6.60;;;;;;;;;;5055057;28;20431;-56
2021/01/25 13:51:37;;;;;;;8.43;6.33;;;;;;;;;;5058500;28;20938;-58
2021/01/25 13:54:03;;;;;;;7.83;6.27;;;;;;;;;;5053901;28;20737;-57
2021/01/25 13:56:29;;;;;;;9.60;6.70;;;;;;;;;;5040065;28;20180;-57
2021/01/25 13:58:55;;;;;;;9.13;6.03;;;;;;;;;;5036981;28;20432;-58
2021/01/25 14:01:22;;;;;;;8.20;5.87;;;;;;;;;;5061231;28;20188;-58
2021/01/25 14:03:48;;;;;;;7.53;6.20;;;;;;;;;;5052677;28;20622;-56
2021/01/25 14:06:14;;;;;;;8.30;7.17;;;;;;;;;;5057698;28;20218;-56
2021/01/25 14:08:41;;;;;;;14.20;7.67;;;;;;;;;;5054620;28;20426;-57
2021/01/25 14:11:08;;;;;;;8.50;6.60;;;;;;;;;;5052845;28;20184;-58
2021/01/25 14:13:34;;;;;;;8.10;6.20;;;;;;;;;;5052971;28;20196;-56
2021/01/25 14:16:00;;;;;;;11.13;7.33;;;;;;;;;;5059497;28;20243;-57
2021/01/25 14:18:26;;;;;;;8.57;6.67;;;;;;;;;;5063011;28;20928;-58
2021/01/25 14:20:53;;;;;;;8.47;6.77;;;;;;;;;;5058995;28;20188;-56
2021/01/25 14:23:19;;;;;;;7.40;6.00;;;;;;;;;;5061564;28;20202;-57
2021/01/25 14:25:45;;;;;;;7.57;6.50;;;;;;;;;;5059091;28;20177;-57
2021/01/25 14:28:11;;;;;;;9.10;6.80;;;;;;;;;;5058990;28;20176;-58
2021/01/25 14:30:45;;;;;;;9.93;7.20;;;;;;;;;;5062696;28;20182;-56
2021/01/25 14:33:12;;;;;;;10.80;7.83;;;;;;;;;;5034336;28;20779;-56
2021/01/25 14:35:38;;;;;;;11.33;7.20;;;;;;;;;;5056812;28;20428;-57
2021/01/25 14:38:05;;;;;;;7.93;6.50;;;;;;;;;;5056854;28;20531;-56
2021/01/25 14:40:31;;;;;;;8.37;6.57;;;;;;;;;;5055347;28;21376;-57